createdAt,value
2022-12-19T08:21:10.933Z,21.27
2022-12-19T08:23:41.479Z,23.05
2022-12-19T08:26:14.595Z,23.02
2022-12-19T08:28:42.516Z,23.48
2022-12-19T08:31:15.411Z,22.20
2022-12-19T08:33:42.825Z,19.85
2022-12-19T08:36:14.841Z,18.23
2022-12-19T08:38:42.108Z,20.38
2022-12-19T08:41:12.027Z,20.48
2022-12-19T08:43:39.080Z,21.40
2022-12-19T08:46:06.555Z,24.80
2022-12-19T08:48:34.665Z,28.45
2022-12-19T08:51:04.673Z,32.30
2022-12-19T08:53:34.629Z,33.30
2022-12-19T08:56:11.445Z,34.28
2022-12-19T08:58:38.374Z,38.08
2022-12-19T09:01:10.638Z,36.58
2022-12-19T09:03:55.467Z,38.15
2022-12-19T09:06:25.811Z,34.45
2022-12-19T09:08:52.995Z,38.72
2022-12-19T09:11:21.551Z,40.55
2022-12-19T09:13:48.964Z,38.60
2022-12-19T09:16:18.491Z,37.70
2022-12-19T09:18:48.745Z,35.58
2022-12-19T09:21:17.648Z,38.70
2022-12-19T09:23:49.647Z,66.68
2022-12-19T09:26:17.093Z,39.10
2022-12-19T09:28:48.311Z,38.53
2022-12-19T09:31:18.451Z,38.50
2022-12-19T09:33:46.716Z,38.25
2022-12-19T09:36:22.988Z,39.13
2022-12-19T09:38:51.095Z,37.85
2022-12-19T09:41:44.904Z,40.17
2022-12-19T09:44:14.725Z,38.33
2022-12-19T09:46:50.799Z,38.72
2022-12-19T09:49:23.336Z,39.70
2022-12-19T09:52:07.957Z,41.63
2022-12-19T09:54:52.925Z,42.58
2022-12-19T09:57:29.880Z,42.53
2022-12-19T10:00:28.458Z,42.63
2022-12-19T10:03:23.005Z,41.88
2022-12-19T10:07:08.711Z,41.28
2022-12-19T10:08:53.769Z,42.88
2022-12-19T10:12:48.254Z,42.78
2022-12-19T10:14:38.724Z,43.40
2022-12-19T10:17:27.058Z,44.03
2022-12-19T10:20:22.841Z,42.35
2022-12-19T10:23:16.697Z,42.90
2022-12-19T10:26:02.728Z,43.13
2022-12-19T10:28:33.001Z,43.95
2022-12-19T10:31:16.973Z,43.53
2022-12-19T10:34:02.560Z,44.92
2022-12-19T10:37:12.538Z,45.47
2022-12-19T10:39:29.635Z,47.63
2022-12-19T10:42:05.506Z,45.35
2022-12-19T10:44:34.926Z,46.67
2022-12-19T10:47:01.779Z,45.38
2022-12-19T10:49:31.637Z,46.83
2022-12-19T10:52:10.339Z,46.90
2022-12-19T10:54:41.014Z,47.88
2022-12-19T10:57:23.062Z,49.00
2022-12-19T11:00:17.505Z,49.15
2022-12-19T11:02:51.659Z,47.13
2022-12-19T11:05:24.638Z,45.08
2022-12-19T11:08:06.675Z,45.60
2022-12-19T11:11:20.319Z,44.92
2022-12-19T11:19:13.656Z,47.15
2022-12-19T11:20:51.463Z,43.95
2022-12-19T11:29:15.171Z,45.33
2022-12-19T11:29:33.805Z,46.35
2022-12-19T11:30:38.169Z,46.22
2022-12-19T11:30:44.123Z,47.95
2022-12-19T11:34:21.279Z,47.88
2022-12-19T11:37:14.336Z,47.45
2022-12-19T11:39:47.501Z,45.78
2022-12-19T11:42:30.969Z,46.63
2022-12-19T11:45:26.499Z,48.70
2022-12-19T11:48:01.563Z,46.20
2022-12-19T11:50:37.323Z,46.72
2022-12-19T11:53:48.259Z,45.28
2022-12-19T11:56:19.173Z,44.22
2022-12-19T11:58:50.449Z,43.70
2022-12-19T12:01:35.796Z,43.30
2022-12-19T12:04:49.408Z,44.05
2022-12-19T12:07:33.221Z,43.03
2022-12-19T12:15:25.203Z,42.45
2022-12-19T12:21:47.398Z,43.13
2022-12-19T12:27:43.822Z,41.28
2022-12-19T12:31:05.559Z,43.05
2022-12-19T12:31:14.912Z,42.22
2022-12-19T12:31:48.509Z,45.22
2022-12-19T12:32:00.366Z,46.17
2022-12-19T12:35:17.433Z,42.28
2022-12-19T12:38:32.309Z,40.90
2022-12-19T12:41:44.156Z,42.33
2022-12-19T12:44:12.586Z,41.47
2022-12-19T12:47:01.409Z,43.78
2022-12-19T12:49:46.556Z,42.65
2022-12-19T12:52:18.536Z,41.67
2022-12-19T12:54:49.008Z,42.33
2022-12-19T12:57:26.954Z,41.95
2022-12-19T13:00:34.138Z,43.35
2022-12-19T13:03:13.499Z,43.13
2022-12-19T13:05:46.452Z,43.03
2022-12-19T13:08:34.801Z,42.45
2022-12-19T13:11:11.585Z,39.28
2022-12-19T13:14:33.562Z,39.05
2022-12-19T13:17:04.185Z,41.30
2022-12-19T13:19:33.725Z,40.00
2022-12-19T13:22:09.471Z,40.83
2022-12-19T13:24:50.011Z,41.30
2022-12-19T13:27:19.559Z,39.95
2022-12-19T13:30:01.533Z,38.40
2022-12-19T13:32:53.492Z,38.10
2022-12-19T13:36:47.745Z,37.00
2022-12-19T13:39:59.351Z,38.33
2022-12-19T13:41:25.934Z,37.80
2022-12-19T13:43:59.261Z,36.40
2022-12-19T13:46:38.140Z,39.72
2022-12-19T13:49:32.929Z,37.42
2022-12-19T13:52:05.301Z,39.80
2022-12-19T13:54:44.678Z,37.90
2022-12-19T13:57:31.886Z,37.15
2022-12-19T14:00:02.533Z,36.83
2022-12-19T14:02:45.169Z,37.72
2022-12-19T14:05:53.336Z,37.30
2022-12-19T14:08:25.358Z,39.63
2022-12-19T14:11:33.482Z,37.20
2022-12-19T14:14:27.296Z,38.58
2022-12-19T14:16:56.277Z,37.88
2022-12-19T14:19:24.387Z,39.38
2022-12-19T14:22:08.640Z,40.30
2022-12-19T14:24:39.476Z,37.92
2022-12-19T14:28:21.684Z,40.53
2022-12-19T14:30:32.430Z,38.55
2022-12-19T14:33:46.857Z,39.47
2022-12-19T14:36:11.994Z,40.08
2022-12-19T14:39:22.026Z,39.17
2022-12-19T14:41:47.661Z,42.65
2022-12-19T14:54:02.056Z,40.45
2022-12-19T14:54:06.295Z,40.70
2022-12-19T14:54:13.739Z,37.10
2022-12-19T14:54:27.382Z,39.55
2022-12-19T14:58:58.245Z,40.83
2022-12-19T15:01:31.851Z,39.85
2022-12-19T15:04:49.513Z,40.80
2022-12-19T15:07:11.997Z,40.88
2022-12-19T15:11:03.012Z,40.75
2022-12-19T15:14:48.216Z,40.22
2022-12-19T15:15:58.894Z,42.40
2022-12-19T15:18:39.067Z,42.10
2022-12-19T15:21:09.614Z,40.20
2022-12-19T15:23:36.512Z,40.80
2022-12-19T15:26:29.409Z,39.85
2022-12-19T15:28:57.322Z,35.63
2022-12-19T15:31:41.694Z,39.40
2022-12-19T15:34:41.677Z,37.83
2022-12-19T15:37:15.564Z,36.38
2022-12-19T15:39:43.512Z,36.25
2022-12-19T15:42:19.829Z,36.63
2022-12-19T15:44:48.205Z,37.38
2022-12-19T15:47:36.878Z,37.75
2022-12-19T15:50:22.059Z,36.85
2022-12-19T15:52:49.068Z,37.33
2022-12-19T15:55:18.042Z,36.97
2022-12-19T15:57:49.173Z,38.05
2022-12-19T16:00:18.614Z,36.95
2022-12-19T16:05:33.572Z,36.88
2022-12-19T16:08:00.446Z,37.95
2022-12-19T16:10:27.369Z,38.17
2022-12-19T16:12:58.126Z,37.80
2022-12-19T16:15:29.446Z,37.80
2022-12-19T16:17:58.626Z,37.92
2022-12-19T16:20:28.044Z,37.47
2022-12-19T16:22:55.330Z,37.40
2022-12-19T16:25:24.820Z,37.65
2022-12-19T16:27:57.122Z,38.67
2022-12-19T16:30:28.801Z,39.72
2022-12-19T16:32:55.809Z,36.20
2022-12-19T16:35:54.984Z,35.92
2022-12-19T16:38:12.251Z,36.10
2022-12-19T16:40:39.645Z,38.28
2022-12-19T16:43:15.571Z,36.78
2022-12-19T16:45:43.742Z,36.63
2022-12-19T16:48:25.395Z,38.58
2022-12-19T16:50:52.538Z,36.20
2022-12-19T16:53:19.603Z,36.67
2022-12-19T16:55:48.213Z,36.33
2022-12-19T16:58:20.979Z,34.95
2022-12-19T17:03:42.805Z,36.03
2022-12-19T17:06:18.091Z,37.38
2022-12-19T17:08:45.581Z,36.67
2022-12-19T17:11:25.183Z,37.88
2022-12-19T17:13:58.941Z,36.35
2022-12-19T17:16:25.919Z,36.13
2022-12-19T17:18:52.970Z,39.85
2022-12-19T17:21:22.525Z,36.95
2022-12-19T17:23:50.860Z,38.88
2022-12-19T17:26:21.142Z,41.13
2022-12-19T17:28:48.452Z,36.83
2022-12-19T17:31:28.257Z,36.00
2022-12-19T17:33:57.676Z,42.17
2022-12-19T17:36:36.681Z,41.97
2022-12-19T17:39:17.620Z,38.72
2022-12-19T17:41:48.211Z,37.47
2022-12-19T17:44:15.077Z,38.88
2022-12-19T17:46:42.405Z,38.25
2022-12-19T17:49:30.285Z,38.67
2022-12-19T17:51:58.557Z,42.38
2022-12-19T17:54:26.507Z,39.97
2022-12-19T17:56:53.580Z,34.75
2022-12-19T17:59:21.016Z,38.42
2022-12-19T18:01:50.228Z,35.88
2022-12-19T18:04:19.812Z,39.70
2022-12-19T18:06:49.997Z,39.33
2022-12-19T18:09:24.192Z,38.75
2022-12-19T18:11:52.759Z,38.63
2022-12-19T18:14:19.695Z,36.70
2022-12-19T18:16:47.386Z,40.80
2022-12-19T18:19:23.013Z,37.65
2022-12-19T18:21:50.189Z,38.40
2022-12-19T18:24:17.768Z,38.60
2022-12-19T18:26:45.320Z,39.65
2022-12-19T18:29:13.077Z,35.50
2022-12-19T18:31:46.446Z,37.50
2022-12-19T18:34:24.758Z,36.33
2022-12-19T18:36:54.087Z,37.63
2022-12-19T18:39:22.052Z,40.20
2022-12-19T18:41:50.247Z,40.47
2022-12-19T18:44:17.541Z,39.88
2022-12-19T18:46:45.265Z,40.85
2022-12-19T18:49:16.793Z,41.20
2022-12-19T18:51:44.852Z,39.57
2022-12-19T18:54:22.389Z,38.05
2022-12-19T18:56:49.310Z,39.33
2022-12-19T18:59:16.162Z,40.92
2022-12-19T19:01:47.626Z,40.30
2022-12-19T19:04:17.858Z,41.65
2022-12-19T19:06:50.983Z,38.10
2022-12-19T19:09:20.439Z,37.80
2022-12-19T19:12:06.082Z,38.45
2022-12-19T19:14:32.977Z,36.90
2022-12-19T19:16:59.900Z,37.60
2022-12-19T19:19:26.840Z,34.90
2022-12-19T19:21:54.328Z,37.40
2022-12-19T19:24:22.635Z,39.35
2022-12-19T19:26:49.736Z,38.78
2022-12-19T19:29:19.097Z,35.60
2022-12-19T19:31:48.698Z,38.40
2022-12-19T19:34:31.786Z,41.47
2022-12-19T19:37:02.217Z,41.30
2022-12-19T19:39:33.000Z,38.17
2022-12-19T19:42:01.129Z,38.05
2022-12-19T19:44:28.596Z,37.88
2022-12-19T19:46:55.505Z,38.28
2022-12-19T19:49:22.794Z,37.05
2022-12-19T19:51:50.085Z,39.20
2022-12-19T19:54:17.133Z,39.90
2022-12-19T19:56:44.111Z,37.45
2022-12-19T19:59:11.005Z,39.88
2022-12-19T20:01:38.044Z,40.60
2022-12-19T20:04:08.184Z,42.05
2022-12-19T20:06:35.007Z,41.10
2022-12-19T20:09:01.840Z,41.10
2022-12-19T20:11:28.719Z,40.13
2022-12-19T20:13:55.525Z,42.00
2022-12-19T20:16:22.733Z,40.90
2022-12-19T20:18:52.272Z,46.25
2022-12-19T20:21:21.025Z,46.97
2022-12-19T20:23:49.832Z,44.47
2022-12-19T20:26:19.321Z,44.95
2022-12-19T20:28:49.317Z,43.53
2022-12-19T20:31:18.529Z,44.85
2022-12-19T20:33:47.104Z,48.00
2022-12-19T20:36:14.689Z,48.67
2022-12-19T20:38:43.364Z,48.72
2022-12-19T20:41:11.182Z,51.08
2022-12-19T20:43:38.741Z,48.13
2022-12-19T20:46:14.898Z,43.72
2022-12-19T20:48:43.444Z,42.47
2022-12-19T20:51:11.037Z,39.08
2022-12-19T20:53:38.829Z,39.67
2022-12-19T20:56:07.916Z,39.55
2022-12-19T20:58:36.376Z,39.35
2022-12-19T21:01:07.749Z,43.05
2022-12-19T21:03:36.931Z,41.85
2022-12-19T21:06:05.430Z,42.67
2022-12-19T21:08:32.995Z,43.25
2022-12-19T21:11:01.087Z,40.45
2022-12-19T21:13:28.543Z,42.47
2022-12-19T21:16:01.885Z,39.80
2022-12-19T21:18:29.644Z,44.03
2022-12-19T21:20:56.742Z,41.17
2022-12-19T21:23:28.103Z,40.67
2022-12-19T21:26:00.001Z,39.28
2022-12-19T21:28:27.325Z,42.55
2022-12-19T21:31:18.347Z,41.05
2022-12-19T21:33:46.726Z,42.83
2022-12-19T21:36:19.000Z,47.67
2022-12-19T21:38:50.396Z,43.53
2022-12-19T21:41:20.337Z,42.58
2022-12-19T21:43:49.251Z,39.60
2022-12-19T21:46:17.998Z,38.50
2022-12-19T21:48:47.287Z,38.67
2022-12-19T21:51:19.618Z,40.58
2022-12-19T21:53:46.956Z,39.25
2022-12-19T21:56:30.199Z,39.80
2022-12-19T21:59:00.847Z,37.90
2022-12-19T22:01:28.622Z,40.42
2022-12-19T22:04:03.838Z,40.55
2022-12-19T22:06:32.002Z,43.53
2022-12-19T22:09:00.390Z,42.90
2022-12-19T22:11:30.837Z,45.10
2022-12-19T22:14:00.617Z,43.08
2022-12-19T22:16:28.563Z,44.33
2022-12-19T22:18:56.603Z,43.35
2022-12-19T22:21:26.218Z,44.85
2022-12-19T22:23:56.353Z,42.67
2022-12-19T22:26:24.324Z,42.88
2022-12-19T22:28:53.323Z,44.42
2022-12-19T22:31:22.166Z,43.25
2022-12-19T22:33:51.214Z,43.17
2022-12-19T22:36:25.801Z,41.03
2022-12-19T22:38:54.997Z,39.65
2022-12-19T22:41:21.980Z,39.92
2022-12-19T22:43:52.132Z,38.95
2022-12-19T22:46:27.506Z,40.05
2022-12-19T22:48:57.107Z,42.63
2022-12-19T22:51:25.164Z,41.53
2022-12-19T22:53:52.430Z,38.90
2022-12-19T22:56:21.835Z,44.17
2022-12-19T22:58:50.979Z,44.88
2022-12-19T23:01:26.297Z,44.95
2022-12-19T23:03:58.093Z,42.70
2022-12-19T23:06:27.781Z,45.53
2022-12-19T23:08:54.688Z,45.55
2022-12-19T23:11:25.180Z,47.55
2022-12-19T23:13:52.091Z,45.45
2022-12-19T23:16:22.064Z,45.10
2022-12-19T23:18:48.967Z,50.50
2022-12-19T23:21:21.868Z,37.72
2022-12-19T23:23:51.472Z,40.20
2022-12-19T23:26:28.478Z,42.97
2022-12-19T23:29:15.220Z,42.88
2022-12-19T23:31:44.781Z,44.60
2022-12-19T23:34:12.783Z,41.40
